Daily Summary

Last 30 Days

Daily Data | Pacific/Honolulu
as of 4/11/21 9:28 AM HST
Date Daily Max Temp (°F) Time of Max Temp Daily Min Temp (°F) Time of Min Temp Daily Rain (In) Seasonal Rainfall (In) Wind Spd (mph) Daily Max Wind (mph) Time of Max Wind Max Wind Dir (°) Daily Solar Rad (Cal/cm2) Daily ETo (in) Dew Pt (°F) Max RH (%) Min RH (%) Max Press (inHg) Time of Max Press Min Press (inHg) Time of Min Press Bat Volt Min Day (V)
4/10/21 77.6 1220 67.3 0410 0.00 17.54 6.1 20.0 2025 NE | 45 436 0.169 58.9 82 50 30.09 0002 29.95 1753 12.8
4/9/21 78.4 1339 69.4 0812 0.00 17.54 7.0 33.7 1532 NE | 40 630 0.216 59.8 77 52 30.14 0834 29.98 1532 12.8
4/8/21 77.4 1433 69.3 0534 0.00 17.54 8.0 25.2 1213 NNE | 27 640 0.227 59.0 74 48 30.16 0913 30.03 1635 12.8
4/7/21 77.3 1332 68.2 0519 0.11 17.54 8.5 26.2 1526 NNE | 31 498 0.179 60.2 80 56 30.14 0921 30.02 1624 12.8
4/6/21 76.2 1331 68.8 0709 0.00 17.43 10.8 31.8 0752 NNE | 32 647 0.230 59.4 79 51 30.15 1012 30.02 1644 12.8
4/5/21 77.6 1310 70.0 0257 0.00 17.43 13.4 33.2 2010 NE | 47 633 0.223 62.8 81 58 30.17 1016 30.04 1525 12.8
4/4/21 74.4 1508 68.1 0658 0.08 17.43 9.5 31.0 1225 NE | 36 572 0.174 63.9 88 69 30.17 2303 30.03 0335 12.8
4/3/21 77.3 1518 68.9 2359 0.10 17.35 8.5 28.3 1519 NE | 45 602 0.202 63.0 86 61 30.10 2310 29.97 0453 12.8
4/2/21 79.4 1320 70.4 0327 0.02 17.25 7.0 20.9 2034 ENE | 59 518 0.178 63.8 82 59 30.06 2214 29.93 1558 12.7
4/1/21 79.5 1432 71.5 0520 0.03 17.23 7.9 25.9 1529 NE | 44 632 0.215 64.6 84 57 30.07 1004 29.93 1610 12.7
3/31/21 80.6 1152 71.4 0626 0.01 17.20 6.5 23.4 1637 NE | 36 626 0.206 66.0 86 60 30.08 2155 29.98 1526 12.8
3/30/21 81.6 1203 70.8 0449 0.00 17.19 6.2 25.7 1446 NE | 42 596 0.203 65.8 87 59 30.07 2138 29.93 1446 12.8
3/29/21 79.9 1101 72.7 0631 0.00 17.19 6.8 28.0 1344 NNE | 22 519 0.181 65.6 82 62 30.06 0009 29.94 1554 12.8
3/28/21 78.7 1202 71.6 2044 0.00 17.19 8.5 26.8 2051 ENE | 66 282 0.134 62.8 78 57 30.11 0003 29.96 1600 12.7
3/27/21 81.4 1427 73.9 0600 0.00 17.19 7.9 24.5 1818 ENE | 57 596 0.218 64.7 74 56 30.13 2208 29.98 1612 12.8
3/26/21 82.3 1440 69.8 0531 0.00 17.19 5.3 19.3 1056 NE | 38 587 0.198 66.9 89 59 30.12 0829 29.98 1631 12.8
3/25/21 80.7 1441 72.9 0847 0.00 17.19 4.7 16.6 1458 SW | 230 565 0.180 69.4 87 70 30.10 2223 29.96 0345 12.6
3/24/21 80.1 1315 74.4 0129 0.12 17.19 5.4 20.3 1115 SSW | 209 456 0.149 69.2 87 71 30.05 2225 29.92 0405 12.7
3/23/21 81.2 1252 68.0 0653 0.00 17.07 3.6 13.4 2204 S | 186 514 0.164 66.6 91 61 30.08 0001 29.91 1605 12.8
3/22/21 80.2 1423 70.8 0631 0.00 17.07 7.6 26.5 1134 NE | 37 616 0.216 62.4 86 53 30.18 0003 30.03 1634 12.8
3/21/21 77.4 1414 69.3 0643 0.09 17.07 10.2 29.4 1229 NE | 55 501 0.193 61.1 84 48 30.25 0019 30.12 1736 12.8
3/20/21 77.4 1150 70.1 2030 0.28 16.98 10.0 34.8 1308 NE | 39 441 0.161 63.5 84 62 30.27 2302 30.13 1636 12.8
3/19/21 77.9 1249 69.8 2114 0.04 16.70 9.1 29.2 1430 NE | 51 584 0.206 61.2 78 55 30.23 2223 30.10 0506 12.8
3/18/21 72.2 0044 66.7 2025 0.56 16.66 10.1 31.6 1251 NE | 42 391 0.119 63.1 92 62 30.19 2327 30.04 0252 12.8
3/17/21 76.0 1526 68.6 0526 0.10 16.10 11.7 36.3 1020 NNE | 16 610 0.212 61.8 87 53 30.13 1023 30.00 1459 12.8
3/16/21 74.9 1024 70.2 2151 0.22 16.00 3.3 23.5 1453 NNE | 33 211 0.074 66.9 89 76 30.13 2255 30.01 1605 12.8
3/15/21 83.1 1146 68.6 0607 0.10 15.78 3.4 14.8 1330 ESE | 122 372 0.124 67.1 92 58 30.10 0926 30.01 1555 12.8
3/14/21 80.7 1324 67.9 0655 0.01 15.68 2.7 11.9 0001 NE | 38 462 0.144 65.1 90 58 30.09 2235 29.98 1641 12.8
3/13/21 78.2 1500 69.0 0315 0.11 15.67 3.8 24.1 0717 NE | 43 320 0.107 65.5 94 63 30.08 2316 29.93 0316 12.8
3/12/21 79.2 1302 69.5 2213 0.74 15.56 4.9 21.1 2337 SSW | 204 297 0.100 69.6 93 76 30.08 0937 29.92 1528 12.8
Max 83.1 - 74.4 - 0.74 - 13.4 36.3 - - 647 0.230 69.6 94 76 30.27 - 30.13 - 12.8
Avg - - - - - - 7.3 - - - - - 64.0 - - - - - - -
Min 72.2 - 66.7 - 0.00 - 2.7 11.9 - - 211 0.074 58.9 74 48 30.05 - 29.91 - 12.6